createdAt,value
2022-10-23T16:48:02.260Z,86.06
2022-10-23T16:51:07.979Z,84.45
2022-10-23T16:54:11.547Z,83.31
2022-10-23T16:57:15.150Z,82.58
2022-10-23T17:00:21.960Z,81.92
2022-10-23T17:03:26.998Z,81.90
2022-10-23T17:06:33.451Z,81.79
2022-10-23T17:09:38.400Z,81.24
2022-10-23T17:12:41.993Z,81.24
2022-10-23T17:15:45.597Z,80.42
2022-10-23T17:18:51.270Z,80.93
2022-10-23T17:21:56.327Z,80.15
2022-10-23T17:24:59.894Z,79.98
2022-10-23T17:28:03.494Z,80.24
2022-10-23T17:31:13.350Z,79.71
2022-10-23T17:34:20.439Z,80.10
2022-10-23T17:37:24.059Z,80.18
2022-10-23T17:40:30.809Z,80.50
2022-10-23T17:43:35.181Z,80.43
2022-10-23T17:46:39.193Z,81.03
2022-10-23T17:49:46.079Z,81.20
2022-10-23T17:52:49.866Z,81.20
2022-10-23T17:55:53.440Z,81.66
2022-10-23T17:59:00.962Z,82.07
2022-10-23T18:02:04.637Z,81.58
2022-10-23T18:05:11.224Z,81.61
2022-10-23T18:08:15.822Z,82.10
2022-10-23T18:11:22.438Z,81.97
2022-10-23T18:14:28.526Z,81.98
2022-10-23T18:17:33.642Z,82.24
2022-10-23T18:20:41.957Z,82.46
2022-10-23T18:23:46.118Z,81.61
2022-10-23T18:26:49.919Z,82.36
2022-10-23T18:29:54.094Z,82.63
2022-10-23T18:32:58.154Z,81.91
2022-10-23T18:36:03.118Z,81.71
2022-10-23T18:39:09.327Z,81.50
2022-10-23T18:42:12.893Z,81.62
2022-10-23T18:45:16.884Z,81.14
2022-10-23T18:48:20.454Z,81.53
2022-10-23T18:51:28.053Z,81.11
2022-10-23T18:54:31.859Z,81.44
2022-10-23T18:57:37.399Z,82.43
2022-10-23T19:00:42.008Z,81.87
2022-10-23T19:03:45.684Z,81.94
2022-10-23T19:06:51.413Z,82.02
2022-10-23T19:09:56.813Z,84.39
2022-10-23T19:13:00.388Z,82.81
2022-10-23T19:16:05.287Z,83.81
2022-10-23T19:19:14.016Z,83.30
2022-10-23T19:22:19.369Z,83.38
2022-10-23T19:25:26.282Z,84.06
2022-10-23T19:28:32.968Z,84.14
2022-10-23T19:31:37.886Z,83.41
2022-10-23T19:34:41.534Z,83.20
2022-10-23T19:37:47.117Z,83.12
2022-10-23T19:40:50.748Z,83.54
2022-10-23T19:43:54.358Z,84.07
2022-10-23T19:46:57.968Z,83.74
2022-10-23T19:50:01.647Z,83.67
2022-10-23T19:53:06.720Z,83.02
2022-10-23T19:56:12.475Z,81.94
2022-10-23T19:59:16.134Z,82.98
2022-10-23T20:02:21.087Z,82.13
2022-10-23T20:05:24.936Z,81.71
2022-10-23T20:08:32.750Z,81.95
2022-10-23T20:11:40.509Z,79.90
2022-10-23T20:14:44.284Z,81.11
2022-10-23T20:17:47.845Z,81.92
2022-10-23T20:20:51.512Z,81.64
2022-10-23T20:23:58.329Z,81.35
2022-10-23T20:27:01.966Z,80.99
2022-10-23T20:30:06.500Z,80.14
2022-10-23T20:33:10.451Z,81.38
2022-10-23T20:36:24.774Z,79.64
2022-10-23T20:39:29.991Z,79.64
2022-10-23T20:42:33.572Z,79.13
2022-10-23T20:45:37.160Z,78.92
2022-10-23T20:48:42.907Z,80.43
2022-10-23T20:51:54.807Z,80.95
2022-10-23T20:55:00.485Z,80.99
2022-10-23T20:58:04.974Z,80.78
